Imperial, NE (69033)

6:40 PM MDT on April 30, 2017 (GMT -0600)
West 12th Street | | Change Station

Elev 3287 ft 40.52 °N, 101.65 °W | Updated 5 minutes ago

Clear
Clear
48.4 °F
Feels Like 47 °F
N
3.7
Wind Variable Wind from NNW
Gusts 6.2 mph

Today
High -- | Low -- °F
--% Chance of Precip.
Yesterday
High -- | Low -- °F
Precip. -- in
Pressure 29.76 in
Visibility 10.0 miles
Clouds Clear
Windchill 47 °F
Dew Point 23 °F
Humidity 36%
Rainfall 0.00 in
Snow Depth Not available.
5:46 AM 7:41 PM
Waxing Crescent, 27% visible
METAR KIML 302353Z AUTO 01021G31KT 10SM CLR 09/M07 A2974 RMK AO2 PK WND 36032/2255 SLP078 T00891072 10089 20061 56009
Pressure 29.76 in
Visibility 10.0 miles
Clouds Clear
Windchill 47 °F
Dew Point 23 °F
Humidity 36%
Rainfall 0.00 in
Snow Depth Not available.
5:46 AM 7:41 PM
Waxing Crescent, 27% visible
METAR KIML 302353Z AUTO 01021G31KT 10SM CLR 09/M07 A2974 RMK AO2 PK WND 36032/2255 SLP078 T00891072 10089 20061 56009

Get Severe Weather Alerts

Thanks for signing up!

Be on the lookout for a verification email in your inbox.

You'll start receiving the daily forecast at 8 AM.

×

10-Day Weather Forecast

Almanac

Astronomy

Apr. 30, 2017 Rise Set
Actual Time
Civil Twilight
Nautical Twilight
Astronomical Twilight
Moon
Length of Visible Light
Length of Day
Tomorrow will be .
, % of the Moon is Illuminated

Today's Extremes

State Highs State Lows

Community

WunderPhotos

WunderBlog® & News

Nearby

Air Quality

  Air Quality AQ Index Pollutant
Not available.

Snow Depth

Station Depth Elevation

Earthquake Activity

City Distance Mag. Time & Date
Minimum magnitude displayed is 2.5.

Coastal Water Temperatures

Place Temperature

Stations

Nearby Weather Stations

Station Location Temp. Windchill Dew Point Humidity Wind Precip. Elev Updated Type
                   

Watches & Warnings

There are currently no watches in effect.